Time;durP1;ratioP1;P1;durP2;ratioP2;P2;SDS_P1;SDS_P2;PMS_P1;PMS_P2;Temp;Humidity;BMP_temperature;BMP_pressure;BME280_temperature;BME280_humidity;BME280_pressure;Samples;Min_cycle;Max_cycle;Signal;HPM_P1;HPM_P2
2022/12/30 00:01:15;;;;;;;15.17;1.40;;;;;;;18.52;66.36;98965.88;7315054;19;129864;-68
2022/12/30 00:03:40;;;;;;;22.92;2.03;;;;;;;18.47;66.35;98956.81;7315294;19;129045;-66
2022/12/30 00:06:14;;;;;;;35.28;2.95;;;;;;;18.51;66.78;98969.41;7313755;19;129150;-67
2022/12/30 00:08:46;;;;;;;18.83;1.77;;;;;;;18.52;66.53;98965.88;7314518;19;132814;-68
2022/12/30 00:11:20;;;;;;;19.00;1.95;;;;;;;18.42;66.79;98957.22;7312383;19;129095;-68
2022/12/30 00:34:01;;;;;;;29.17;2.92;;;;;;;18.52;66.21;98973.69;7315457;19;128993;-67
2022/12/30 00:36:29;;;;;;;12.77;1.45;;;;;;;18.38;66.07;98955.00;7312605;19;130354;-68
2022/12/30 00:38:54;;;;;;;20.27;1.98;;;;;;;18.51;66.11;98979.03;7315575;19;129894;-67
2022/12/30 00:44:04;;;;;;;36.15;3.67;;;;;;;18.51;65.90;98985.03;7314852;19;129278;-67
2022/12/30 00:46:30;;;;;;;31.08;3.03;;;;;;;18.49;66.22;98981.75;7313065;19;129176;-69
2022/12/30 00:57:07;;;;;;;19.02;2.05;;;;;;;18.15;67.25;98994.25;7313996;19;129652;-67
2022/12/30 00:59:32;;;;;;;16.83;1.77;;;;;;;18.23;65.53;99001.38;7312966;19;129485;-67
2022/12/30 01:01:57;;;;;;;37.88;3.42;;;;;;;18.23;65.57;98996.16;7312000;19;129163;-67
2022/12/30 01:04:23;;;;;;;18.05;1.83;;;;;;;18.27;65.03;99000.16;7314573;19;129744;-65
2022/12/30 01:06:48;;;;;;;11.02;1.10;;;;;;;18.33;65.29;99006.63;7312679;19;129211;-66
2022/12/30 01:09:13;;;;;;;23.10;2.13;;;;;;;18.35;65.21;99010.72;7313928;19;129317;-68
2022/12/30 01:11:39;;;;;;;31.88;2.97;;;;;;;18.37;64.89;99016.63;7312051;19;129201;-66
2022/12/30 01:14:04;;;;;;;11.52;1.23;;;;;;;18.37;64.86;99023.59;7314106;19;128846;-67
2022/12/30 01:16:30;;;;;;;28.15;2.78;;;;;;;18.27;64.72;99007.97;7310129;19;129237;-67
2022/12/30 01:18:55;;;;;;;23.33;2.45;;;;;;;18.41;65.19;99028.44;7313370;19;130216;-67
2022/12/30 01:21:20;;;;;;;16.20;1.48;;;;;;;18.28;65.89;99020.00;7312513;19;129703;-67
2022/12/30 01:23:46;;;;;;;16.60;1.63;;;;;;;18.37;65.37;99039.22;7313495;19;128930;-68
2022/12/30 01:26:12;;;;;;;17.48;1.52;;;;;;;18.38;65.26;99041.69;7312179;19;129186;-68
2022/12/30 01:28:38;;;;;;;42.78;3.33;;;;;;;18.33;66.50;99049.06;7315363;19;129852;-67
2022/12/30 01:31:08;;;;;;;16.40;1.75;;;;;;;18.39;66.99;99064.19;7311514;19;129194;-68
2022/12/30 01:33:35;;;;;;;19.10;1.83;;;;;;;18.38;66.25;99061.69;7313903;19;129284;-65
2022/12/30 01:36:00;;;;;;;11.80;1.23;;;;;;;18.38;66.32;99062.50;7309453;19;129739;-65
2022/12/30 01:38:28;;;;;;;20.38;1.88;;;;;;;18.39;66.58;99063.34;7311675;19;130150;-68
2022/12/30 01:40:54;;;;;;;15.57;1.65;;;;;;;18.43;66.37;99062.97;7311863;19;129175;-68
2022/12/30 01:43:19;;;;;;;14.02;1.33;;;;;;;18.45;67.06;99061.06;7313397;19;129571;-66
2022/12/30 01:45:52;;;;;;;18.25;2.10;;;;;;;18.52;66.59;99056.97;7310898;19;128811;-65
2022/12/30 01:48:32;;;;;;;18.02;1.70;;;;;;;18.52;67.02;99069.16;7313911;19;129411;-67
2022/12/30 01:51:01;;;;;;;43.63;3.63;;;;;;;18.43;66.59;99052.56;7310997;19;129582;-66
2022/12/30 01:53:33;;;;;;;28.58;2.58;;;;;;;18.49;66.88;99072.03;7313806;19;129374;-68
2022/12/30 01:56:04;;;;;;;25.15;2.40;;;;;;;18.52;67.27;99075.19;7310173;19;129533;-67
2022/12/30 01:58:35;;;;;;;10.93;1.30;;;;;;;18.55;67.09;99066.28;7312405;19;129071;-66
2022/12/30 02:01:00;;;;;;;18.33;2.00;;;;;;;18.59;66.38;99062.47;7310685;19;129793;-66
2022/12/30 02:03:33;;;;;;;39.10;3.33;;;;;;;18.52;67.08;99043.13;7313060;19;129242;-66
2022/12/30 02:05:59;;;;;;;20.50;1.92;;;;;;;18.63;66.23;99056.84;7310477;19;128997;-65
2022/12/30 02:08:25;;;;;;;15.75;1.50;;;;;;;18.62;66.55;99055.22;7311715;19;129460;-68
2022/12/30 02:10:53;;;;;;;27.02;2.45;;;;;;;18.58;65.73;99059.03;7309835;19;129791;-68
2022/12/30 02:13:20;;;;;;;35.15;3.08;;;;;;;18.47;66.25;99051.34;7312133;19;129047;-65
2022/12/30 02:16:08;;;;;;;17.67;1.63;;;;;;;18.60;67.36;99072.75;7310688;19;128775;-66
2022/12/30 02:18:59;;;;;;;21.25;2.03;;;;;;;18.64;67.27;99074.13;7313773;19;129063;-67
2022/12/30 02:21:43;;;;;;;26.98;2.45;;;;;;;18.54;66.92;99057.66;7308082;19;130355;-65
2022/12/30 02:25:06;;;;;;;18.20;1.75;;;;;;;18.62;66.57;99076.03;7309301;19;129435;-67
2022/12/30 02:27:43;;;;;;;15.70;1.58;;;;;;;18.62;67.31;99086.47;7307700;19;129103;-65
2022/12/30 02:30:18;;;;;;;27.38;2.72;;;;;;;18.61;66.55;99087.41;7306613;19;129421;-66
2022/12/30 02:33:05;;;;;;;33.08;2.97;;;;;;;18.59;66.98;99091.94;7310065;19;130567;-67
2022/12/30 02:35:51;;;;;;;37.58;3.30;;;;;;;18.61;66.86;99102.22;7306666;19;129857;-66
2022/12/30 02:38:25;;;;;;;29.92;2.55;;;;;;;18.61;67.21;99097.81;7311940;19;129384;-65
2022/12/30 02:47:05;;;;;;;21.08;1.88;;;;;;;18.54;66.95;99116.72;7307259;19;129517;-68
2022/12/30 02:49:35;;;;;;;37.28;3.50;;;;;;;18.54;67.18;99124.50;7310648;19;129263;-68
2022/12/30 02:52:14;;;;;;;16.88;1.73;;;;;;;18.51;66.31;99130.78;7317742;19;129730;-65
2022/12/30 02:54:40;;;;;;;14.43;1.38;;;;;;;18.51;67.15;99130.78;7318081;19;129142;-66
2022/12/30 02:57:24;;;;;;;21.48;2.00;;;;;;;18.53;67.36;99138.50;7317766;19;129614;-67
2022/12/30 03:05:26;;;;;;;16.63;1.42;;;;;;;18.47;66.77;99150.25;7316719;19;129622;-66
2022/12/30 03:08:12;;;;;;;29.23;2.40;;;;;;;18.50;67.02;99152.59;7319403;19;128861;-68
2022/12/30 03:13:44;;;;;;;20.93;2.27;;;;;;;18.53;67.22;99169.72;7317373;19;129512;-67
2022/12/30 03:16:18;;;;;;;34.40;2.83;;;;;;;18.41;66.97;99148.16;7314239;19;129292;-68
2022/12/30 03:18:45;;;;;;;35.38;3.05;;;;;;;18.41;66.91;99155.94;7317131;19;128749;-65
2022/12/30 03:21:11;;;;;;;15.93;1.52;;;;;;;18.54;66.88;99172.22;7316504;19;129065;-68
2022/12/30 03:29:16;;;;;;;27.52;2.72;;;;;;;18.54;66.70;99179.19;7316500;19;128946;-67
2022/12/30 03:31:41;;;;;;;20.10;1.83;;;;;;;18.53;66.84;99178.34;7314921;19;128873;-68
2022/12/30 03:34:07;;;;;;;29.83;2.58;;;;;;;18.54;66.42;99172.22;7314731;19;131753;-68
2022/12/30 03:36:43;;;;;;;16.33;1.70;;;;;;;18.54;66.62;99171.38;7313541;19;129653;-68
2022/12/30 03:39:16;;;;;;;21.60;2.25;;;;;;;18.52;67.06;99174.09;7317523;19;129433;-66
2022/12/30 03:41:45;;;;;;;16.55;1.83;;;;;;;18.52;66.55;99168.91;7313155;19;129107;-66
2022/12/30 03:44:11;;;;;;;24.17;2.13;;;;;;;18.50;66.41;99176.00;7315655;19;129911;-67
2022/12/30 03:46:41;;;;;;;26.23;2.28;;;;;;;18.52;66.82;99176.72;7315122;19;129722;-67
2022/12/30 03:49:06;;;;;;;23.45;2.47;;;;;;;18.51;66.44;99177.66;7316786;19;129124;-67
2022/12/30 03:51:31;;;;;;;17.60;1.77;;;;;;;18.52;66.74;99174.09;7314816;19;129277;-67
2022/12/30 03:53:57;;;;;;;24.77;2.40;;;;;;;18.53;66.09;99186.16;7315446;19;129618;-68
2022/12/30 03:56:22;;;;;;;31.40;2.75;;;;;;;18.40;66.22;99159.53;7314837;19;129223;-67
2022/12/30 03:58:47;;;;;;;14.10;1.35;;;;;;;18.53;65.83;99190.56;7316965;19;129231;-68
2022/12/30 04:01:13;;;;;;;15.05;1.42;;;;;;;18.51;66.58;99198.47;7314187;19;129526;-65
2022/12/30 04:03:38;;;;;;;25.33;2.60;;;;;;;18.39;66.63;99178.69;7315401;19;129081;-66
2022/12/30 04:06:03;;;;;;;25.15;2.45;;;;;;;18.51;66.24;99198.47;7315185;19;129017;-67
2022/12/30 04:08:29;;;;;;;18.02;1.75;;;;;;;18.51;66.56;99193.25;7316254;19;130372;-66
2022/12/30 04:10:54;;;;;;;14.68;1.63;;;;;;;18.51;66.53;99206.28;7312408;19;130044;-66
2022/12/30 04:13:19;;;;;;;31.15;2.72;;;;;;;18.52;66.58;99215.75;7314561;19;129381;-66
2022/12/30 04:15:49;;;;;;;15.02;1.52;;;;;;;18.52;66.43;99220.13;7311852;19;130570;-65
2022/12/30 04:18:14;;;;;;;13.98;1.40;;;;;;;18.51;65.82;99219.28;7315475;19;129025;-67
2022/12/30 04:20:40;;;;;;;14.25;1.33;;;;;;;18.36;65.59;99215.38;7314166;19;129030;-66
2022/12/30 04:23:05;;;;;;;30.50;2.80;;;;;;;18.13;66.34;99214.66;7314454;19;129021;-66
2022/12/30 04:25:31;;;;;;;18.50;2.00;;;;;;;18.05;66.50;99208.44;7314420;19;129413;-66
2022/12/30 04:27:56;;;;;;;6.82;0.98;;;;;;;18.17;66.50;99229.06;7314616;19;129007;-67
2022/12/30 04:30:21;;;;;;;17.63;1.65;;;;;;;18.21;65.92;99240.06;7313869;19;128922;-66
2022/12/30 04:32:47;;;;;;;36.72;3.20;;;;;;;18.27;66.69;99241.31;7314072;19;129094;-66
2022/12/30 04:35:12;;;;;;;25.20;2.70;;;;;;;18.27;65.75;99233.50;7314193;19;129756;-67
2022/12/30 04:37:37;;;;;;;9.93;1.10;;;;;;;18.30;65.98;99241.88;7314474;19;129013;-65
2022/12/30 04:40:03;;;;;;;29.65;2.83;;;;;;;18.32;64.90;99239.97;7313762;19;129103;-68
2022/12/30 04:42:29;;;;;;;37.10;3.22;;;;;;;18.35;65.43;99247.53;7312413;19;129596;-66
2022/12/30 04:44:54;;;;;;;22.05;1.85;;;;;;;18.37;65.02;99250.00;7313899;19;129221;-68
2022/12/30 04:47:19;;;;;;;15.93;1.27;;;;;;;18.36;64.56;99258.78;7315558;19;129434;-68
2022/12/30 04:49:45;;;;;;;14.13;1.25;;;;;;;18.36;65.05;99258.78;7314437;19;129538;-67
2022/12/30 04:52:10;;;;;;;34.35;2.70;;;;;;;18.38;65.25;99260.28;7312226;19;130583;-69
2022/12/30 04:54:35;;;;;;;16.55;1.67;;;;;;;18.39;66.15;99256.78;7312259;19;132246;-68
2022/12/30 04:57:01;;;;;;;20.95;1.95;;;;;;;18.27;65.45;99241.31;7310989;19;129481;-67
2022/12/30 04:59:26;;;;;;;26.30;2.33;;;;;;;18.41;66.25;99264.47;7313789;19;128694;-67
2022/12/30 05:01:51;;;;;;;24.10;2.15;;;;;;;18.29;66.32;99250.66;7312298;19;129547;-68
2022/12/30 05:04:17;;;;;;;14.30;1.33;;;;;;;18.40;65.68;99263.63;7313786;19;129199;-67
2022/12/30 05:06:42;;;;;;;8.68;0.90;;;;;;;18.38;65.85;99270.69;7313266;19;129344;-67
2022/12/30 05:09:08;;;;;;;51.22;4.78;;;;;;;18.41;67.40;99278.28;7313164;19;129196;-66
2022/12/30 05:11:33;;;;;;;18.33;1.85;;;;;;;18.46;66.36;99273.50;7312387;19;129100;-68
2022/12/30 05:13:59;;;;;;;14.35;1.45;;;;;;;18.42;67.14;99272.13;7312242;19;130564;-65
2022/12/30 05:16:24;;;;;;;16.48;1.52;;;;;;;18.47;67.44;99288.19;7311071;19;129095;-66
2022/12/30 05:18:49;;;;;;;32.35;2.55;;;;;;;18.51;66.76;99279.16;7314285;19;129511;-66
2022/12/30 05:21:15;;;;;;;14.35;1.38;;;;;;;18.54;67.17;99276.31;7312536;19;129436;-68
2022/12/30 05:26:24;;;;;;;15.95;1.58;;;;;;;18.52;66.93;99273.03;7312802;19;130421;-67
2022/12/30 05:28:50;;;;;;;16.02;1.52;;;;;;;18.56;67.25;99284.81;7313181;19;129117;-66
2022/12/30 05:31:17;;;;;;;25.98;2.20;;;;;;;18.58;66.94;99279.47;7312852;19;129724;-68
2022/12/30 05:33:42;;;;;;;13.45;1.27;;;;;;;18.60;66.81;99283.63;7313295;19;129754;-68
2022/12/30 05:36:09;;;;;;;17.92;1.75;;;;;;;18.62;66.46;99284.31;7309117;19;129180;-65
2022/12/30 05:38:34;;;;;;;27.63;2.65;;;;;;;18.63;66.29;99279.91;7314814;19;129177;-66
2022/12/30 05:41:00;;;;;;;21.05;1.88;;;;;;;18.63;66.73;99280.75;7312027;19;129628;-67
2022/12/30 05:43:25;;;;;;;26.02;2.70;;;;;;;18.61;65.99;99282.66;7313451;19;129934;-66
2022/12/30 05:45:51;;;;;;;15.65;1.80;;;;;;;18.62;66.41;99283.47;7310634;19;129458;-66
2022/12/30 05:48:16;;;;;;;34.30;3.03;;;;;;;18.60;66.49;99275.81;7312456;19;128650;-66
2022/12/30 05:50:42;;;;;;;17.23;1.85;;;;;;;18.61;66.31;99277.44;7312437;19;129426;-68
2022/12/30 05:53:08;;;;;;;13.70;1.30;;;;;;;18.60;66.84;99283.63;7313615;19;129747;-66
2022/12/30 05:55:33;;;;;;;11.20;1.13;;;;;;;18.60;67.05;99286.22;7310336;19;129214;-67
2022/12/30 05:57:58;;;;;;;39.22;3.63;;;;;;;18.58;66.54;99290.72;7313264;19;129081;-66
2022/12/30 06:00:24;;;;;;;19.27;1.80;;;;;;;18.56;66.45;99295.22;7312799;19;129572;-67
2022/12/30 06:02:49;;;;;;;12.93;1.33;;;;;;;18.59;67.15;99304.56;7311150;19;130374;-66
2022/12/30 06:05:14;;;;;;;15.35;1.60;;;;;;;18.58;66.71;99308.09;7311315;19;129213;-66
2022/12/30 06:07:40;;;;;;;31.13;2.65;;;;;;;18.56;66.67;99313.44;7312361;19;129027;-66
2022/12/30 06:10:05;;;;;;;22.02;2.50;;;;;;;18.54;66.78;99302.34;7312746;19;129695;-67
2022/12/30 06:12:31;;;;;;;9.52;1.05;;;;;;;18.55;66.86;99303.16;7309078;19;130503;-68
2022/12/30 06:14:56;;;;;;;38.30;4.05;;;;;;;18.52;67.25;99314.66;7310881;19;129676;-67
2022/12/30 06:17:22;;;;;;;32.33;2.75;;;;;;;18.54;67.11;99325.78;7308558;19;129778;-67
2022/12/30 06:19:47;;;;;;;14.48;1.38;;;;;;;18.53;66.76;99325.91;7312986;19;129763;-67
2022/12/30 06:22:12;;;;;;;15.15;1.50;;;;;;;18.41;66.64;99304.28;7309945;19;130764;-65
2022/12/30 06:24:38;;;;;;;24.95;2.00;;;;;;;18.49;67.17;99332.31;7311152;19;129304;-68
2022/12/30 06:27:03;;;;;;;21.40;1.95;;;;;;;18.36;65.77;99314.25;7310692;19;129620;-68
2022/12/30 06:29:28;;;;;;;17.17;1.67;;;;;;;18.33;67.07;99340.50;7311614;19;129398;-67
2022/12/30 06:31:54;;;;;;;20.42;1.80;;;;;;;18.16;66.64;99315.84;7308941;19;129415;-66
2022/12/30 06:34:19;;;;;;;40.17;3.47;;;;;;;18.30;65.54;99330.34;7311004;19;129616;-65
2022/12/30 06:36:44;;;;;;;12.07;1.23;;;;;;;18.27;66.44;99348.81;7309363;19;128767;-67
2022/12/30 06:39:10;;;;;;;20.00;2.05;;;;;;;18.29;65.88;99349.53;7311080;19;130221;-68
2022/12/30 06:41:35;;;;;;;15.48;1.38;;;;;;;18.30;66.90;99351.16;7309599;19;129411;-65
2022/12/30 06:44:00;;;;;;;39.33;3.45;;;;;;;18.32;64.85;99351.88;7310583;19;129487;-66
2022/12/30 06:46:26;;;;;;;9.48;1.17;;;;;;;18.35;65.45;99356.81;7310291;19;128959;-66
2022/12/30 06:48:51;;;;;;;19.27;1.98;;;;;;;18.40;65.30;99361.69;7309237;19;130145;-66
2022/12/30 06:51:16;;;;;;;20.55;1.95;;;;;;;18.44;64.88;99368.31;7309329;19;130170;-65
2022/12/30 06:53:42;;;;;;;29.23;2.40;;;;;;;18.41;64.77;99374.56;7311001;19;129403;-65
2022/12/30 06:56:07;;;;;;;10.23;1.08;;;;;;;18.45;64.77;99377.75;7309519;19;129205;-66
2022/12/30 06:58:33;;;;;;;17.13;1.73;;;;;;;18.47;65.78;99387.09;7309595;19;129098;-65
2022/12/30 07:00:58;;;;;;;27.50;2.55;;;;;;;18.42;65.02;99389.25;7308965;19;129533;-67
2022/12/30 07:03:23;;;;;;;38.60;3.83;;;;;;;18.43;65.74;99388.28;7309532;19;129041;-69
2022/12/30 07:05:49;;;;;;;18.88;1.83;;;;;;;18.40;65.57;99390.31;7310415;19;129427;-66
2022/12/30 07:08:14;;;;;;;15.27;1.55;;;;;;;18.39;65.61;99397.31;7310663;19;129113;-66
2022/12/30 07:10:40;;;;;;;27.40;2.42;;;;;;;18.44;66.23;99402.97;7308576;19;129549;-65
2022/12/30 07:13:05;;;;;;;15.38;1.45;;;;;;;18.31;66.46;99386.66;7311276;19;128797;-65
2022/12/30 07:15:31;;;;;;;11.65;1.23;;;;;;;18.43;66.12;99414.31;7308393;19;129039;-68
2022/12/30 07:17:56;;;;;;;24.83;2.33;;;;;;;18.32;65.78;99401.31;7311091;19;129418;-66
2022/12/30 07:20:22;;;;;;;44.03;4.07;;;;;;;18.47;66.56;99426.16;7304843;19;132215;-65
2022/12/30 07:22:47;;;;;;;13.93;1.33;;;;;;;18.45;66.26;99433.25;7311611;19;129060;-68
2022/12/30 07:25:12;;;;;;;27.73;3.15;;;;;;;18.49;67.43;99426.84;7308169;19;129860;-66
2022/12/30 07:27:38;;;;;;;14.18;1.33;;;;;;;18.50;67.26;99430.25;7310289;19;129531;-67
2022/12/30 07:30:04;;;;;;;43.53;4.10;;;;;;;18.54;66.93;99427.31;7309346;19;129177;-68
2022/12/30 07:32:30;;;;;;;17.73;1.90;;;;;;;18.56;66.41;99435.78;7308029;19;129865;-67
2022/12/30 07:34:55;;;;;;;43.83;4.57;;;;;;;18.55;66.69;99428.94;7308079;19;129272;-67
2022/12/30 07:37:21;;;;;;;17.58;1.63;;;;;;;18.60;67.02;99432.00;7314042;19;129455;-67
2022/12/30 07:39:47;;;;;;;34.60;3.07;;;;;;;18.51;66.85;99414.53;7315849;19;129121;-67
2022/12/30 07:42:12;;;;;;;16.20;1.50;;;;;;;18.62;66.47;99429.28;7315465;19;129552;-65
2022/12/30 07:44:37;;;;;;;8.45;0.98;;;;;;;18.50;66.89;99412.03;7315410;19;129238;-68
2022/12/30 07:47:04;;;;;;;24.48;2.45;;;;;;;18.67;66.82;99432.34;7314802;19;129113;-68
2022/12/30 07:49:29;;;;;;;36.55;3.55;;;;;;;18.65;66.60;99448.09;7316331;19;129972;-68
2022/12/30 07:51:55;;;;;;;12.70;1.33;;;;;;;18.55;66.21;99428.94;7313731;19;129494;-68
2022/12/30 07:54:20;;;;;;;20.60;2.08;;;;;;;18.67;66.28;99448.78;7314503;19;129021;-67
2022/12/30 07:56:46;;;;;;;28.95;2.58;;;;;;;18.66;66.29;99452.34;7312442;19;129048;-65
2022/12/30 07:59:12;;;;;;;18.08;2.03;;;;;;;18.62;66.62;99437.09;7315053;19;129381;-67
2022/12/30 08:01:38;;;;;;;17.30;1.55;;;;;;;18.67;66.73;99443.59;7313826;19;129563;-68
2022/12/30 08:04:04;;;;;;;16.30;1.70;;;;;;;18.56;66.51;99430.59;7314958;19;129378;-68
2022/12/30 08:06:29;;;;;;;38.30;2.85;;;;;;;18.63;65.70;99444.78;7315858;19;129649;-67
2022/12/30 08:08:54;;;;;;;16.88;1.70;;;;;;;18.68;66.64;99442.63;7314322;19;130334;-68
2022/12/30 08:11:20;;;;;;;18.50;1.60;;;;;;;18.65;66.94;99440.28;7312344;19;129257;-67
2022/12/30 08:13:45;;;;;;;15.30;1.42;;;;;;;18.66;66.65;99447.13;7314642;19;129211;-67
2022/12/30 08:16:13;;;;;;;36.97;3.13;;;;;;;18.61;67.02;99456.28;7313885;19;129440;-68
2022/12/30 08:18:39;;;;;;;26.13;2.60;;;;;;;18.58;66.74;99454.72;7315888;19;129061;-65
2022/12/30 08:21:07;;;;;;;17.17;1.60;;;;;;;18.60;66.81;99452.00;7314609;19;129056;-65
2022/12/30 08:23:33;;;;;;;21.58;2.00;;;;;;;18.50;66.52;99441.50;7315428;19;129747;-68
2022/12/30 08:26:20;;;;;;;42.60;3.55;;;;;;;18.59;67.00;99471.19;7314530;19;130071;-65
2022/12/30 08:28:45;;;;;;;38.15;3.28;;;;;;;18.55;66.80;99473.22;7314663;19;130162;-66
2022/12/30 08:31:17;;;;;;;18.98;2.00;;;;;;;18.55;66.61;99473.22;7313985;19;128776;-69
2022/12/30 08:33:43;;;;;;;14.00;1.48;;;;;;;18.51;66.84;99479.59;7314782;19;129329;-67
2022/12/30 08:36:10;;;;;;;;;;;;;;;18.55;66.89;99485.38;7312105;19;132670;-68
2022/12/30 08:38:38;;;;;;;41.60;3.70;;;;;;;18.39;67.47;99453.69;7311997;19;132540;-65
2022/12/30 08:41:13;;;;;;;21.77;1.98;;;;;;;18.49;66.88;99486.72;7314052;19;129451;-65
2022/12/30 08:43:38;;;;;;;21.55;2.10;;;;;;;18.42;65.84;99489.91;7314917;19;129968;-68
2022/12/30 08:46:04;;;;;;;12.63;1.35;;;;;;;18.28;66.48;99490.97;7312704;19;129026;-65
2022/12/30 08:48:30;;;;;;;27.67;2.65;;;;;;;18.37;66.53;99489.44;7312592;19;130032;-68
2022/12/30 08:50:56;;;;;;;34.27;2.93;;;;;;;18.32;67.03;99489.78;7314231;19;129429;-68
2022/12/30 08:53:22;;;;;;;13.88;1.38;;;;;;;18.26;66.23;99479.88;7313206;19;130652;-65
2022/12/30 08:55:48;;;;;;;5.07;0.50;;;;;;;18.34;66.01;99497.47;7312328;19;129381;-67
2022/12/30 08:58:13;;;;;;;31.10;2.92;;;;;;;18.34;66.30;99490.50;7314315;19;129800;-67
2022/12/30 09:00:38;;;;;;;23.63;2.20;;;;;;;18.36;65.82;99488.63;7313452;19;128937;-65
2022/12/30 09:03:05;;;;;;;25.70;2.78;;;;;;;18.38;65.16;99499.72;7312400;19;129854;-67
2022/12/30 09:05:33;;;;;;;7.85;1.00;;;;;;;18.42;64.89;99495.97;7313030;19;129163;-68
2022/12/30 09:07:58;;;;;;;31.80;2.88;;;;;;;18.45;65.18;99500.09;7314222;19;129111;-65
2022/12/30 09:10:25;;;;;;;22.00;1.98;;;;;;;18.45;65.38;99494.88;7313651;19;129120;-66
2022/12/30 09:12:50;;;;;;;21.30;2.22;;;;;;;18.34;65.12;99472.28;7313594;19;128812;-67
2022/12/30 09:15:15;;;;;;;15.52;1.45;;;;;;;18.43;64.92;99483.78;7312016;19;129674;-68
2022/12/30 09:17:41;;;;;;;28.05;2.45;;;;;;;18.43;65.60;99497.59;7311566;19;129866;-67
2022/12/30 09:20:07;;;;;;;22.13;2.35;;;;;;;18.43;65.91;99482.00;7312771;19;128938;-67
2022/12/30 09:22:32;;;;;;;16.67;1.80;;;;;;;18.28;65.63;99470.16;7311726;19;129222;-68
2022/12/30 09:24:57;;;;;;;41.28;4.80;;;;;;;18.38;65.42;99497.09;7311497;19;129464;-69
2022/12/30 09:27:22;;;;;;;39.17;3.65;;;;;;;18.31;66.33;99472.53;7313466;19;129267;-65
2022/12/30 09:29:48;;;;;;;14.75;1.33;;;;;;;18.42;66.44;99490.75;7315010;19;129657;-66
2022/12/30 09:32:13;;;;;;;8.55;1.02;;;;;;;18.43;67.13;99487.19;7311936;19;128800;-67
2022/12/30 09:34:41;;;;;;;18.30;1.73;;;;;;;18.44;65.96;99483.66;7312715;19;129406;-67
2022/12/30 09:37:07;;;;;;;40.80;3.65;;;;;;;18.39;66.57;99475.38;7310119;19;129139;-66
2022/12/30 09:39:32;;;;;;;20.70;2.03;;;;;;;18.45;66.58;99469.69;7313724;19;128944;-66
2022/12/30 09:44:59;;;;;;;17.85;1.58;;;;;;;18.54;67.11;99468.97;7312330;19;129753;-68
2022/12/30 09:47:34;;;;;;;16.73;1.52;;;;;;;18.58;67.40;99462.53;7315001;19;129687;-67
2022/12/30 09:50:07;;;;;;;25.83;2.55;;;;;;;18.59;67.57;99472.03;7313226;19;129495;-65
2022/12/30 09:52:39;;;;;;;33.15;2.90;;;;;;;18.57;67.27;99466.09;7309772;19;130006;-67
2022/12/30 09:55:05;;;;;;;57.50;5.80;;;;;;;18.51;66.61;99457.97;7308569;19;129601;-67
2022/12/30 09:57:34;;;;;;;7.32;0.85;;;;;;;18.56;66.38;99461.84;7309717;19;129176;-67
2022/12/30 10:00:17;;;;;;;18.92;1.98;;;;;;;18.61;67.30;99443.25;7309995;19;129385;-65
2022/12/30 10:02:54;;;;;;;16.05;1.52;;;;;;;18.58;66.77;99436.50;7312422;19;129799;-66
2022/12/30 10:05:35;;;;;;;20.73;1.85;;;;;;;18.52;67.16;99424.00;7309162;19;131748;-67
2022/12/30 10:08:19;;;;;;;28.85;2.47;;;;;;;18.63;67.28;99431.75;7312510;19;129219;-66
2022/12/30 10:11:05;;;;;;;41.80;3.30;;;;;;;18.65;66.63;99429.84;7311502;19;129599;-66
2022/12/30 10:13:42;;;;;;;39.38;3.17;;;;;;;18.68;66.51;99434.81;7310021;19;128851;-67
2022/12/30 10:16:10;;;;;;;;;;;;;;;18.69;66.99;99431.25;7311451;19;129303;-67
2022/12/30 10:18:56;;;;;;;22.08;2.28;;;;;;;18.65;67.32;99429.84;7312443;19;129649;-66
2022/12/30 10:21:30;;;;;;;14.88;1.42;;;;;;;18.65;67.17;99429.03;7310793;19;128900;-66
2022/12/30 10:24:07;;;;;;;6.53;0.77;;;;;;;18.63;66.94;99423.09;7312697;19;129407;-68
2022/12/30 10:26:44;;;;;;;16.38;1.60;;;;;;;18.58;67.08;99401.81;7310049;19;129344;-67
2022/12/30 10:29:17;;;;;;;27.58;2.50;;;;;;;18.64;67.02;99415.19;7311131;19;129702;-66
2022/12/30 10:31:45;;;;;;;34.67;3.05;;;;;;;18.63;66.60;99410.09;7309814;19;129373;-68
2022/12/30 10:34:19;;;;;;;28.30;2.63;;;;;;;18.63;67.25;99415.28;7311445;19;128852;-67
2022/12/30 10:36:47;;;;;;;20.90;1.88;;;;;;;18.62;66.65;99405.84;7312013;19;129501;-65
2022/12/30 10:39:19;;;;;;;14.13;1.83;;;;;;;18.59;67.14;99414.75;7310596;19;130202;-67
2022/12/30 10:42:23;;;;;;;13.70;1.38;;;;;;;18.58;67.20;99412.25;7309847;19;129801;-68
2022/12/30 10:45:15;;;;;;;17.73;1.65;;;;;;;18.45;67.25;99402.00;7310582;19;128937;-67
2022/12/30 10:47:43;;;;;;;14.32;1.33;;;;;;;18.49;66.75;99402.59;7311624;19;129314;-65
2022/12/30 10:50:36;;;;;;;16.67;1.70;;;;;;;18.47;67.42;99394.91;7311009;19;129278;-66
2022/12/30 10:53:04;;;;;;;22.10;2.70;;;;;;;18.42;66.94;99397.06;7309770;19;129402;-66
2022/12/30 10:55:32;;;;;;;25.77;2.40;;;;;;;18.42;67.54;99391.84;7309714;19;128979;-67
2022/12/30 10:58:09;;;;;;;30.10;2.67;;;;;;;18.42;67.85;99389.25;7308510;19;129569;-68
2022/12/30 11:00:39;;;;;;;15.18;1.77;;;;;;;18.42;66.84;99394.47;7310206;19;129152;-68
2022/12/30 11:03:31;;;;;;;15.77;1.75;;;;;;;18.39;67.88;99396.44;7310221;19;128845;-67
2022/12/30 11:05:59;;;;;;;16.50;1.70;;;;;;;18.37;66.50;99388.75;7309916;19;128944;-66
2022/12/30 11:08:29;;;;;;;18.73;1.95;;;;;;;18.38;66.83;99384.41;7309802;19;129085;-67
2022/12/30 11:11:03;;;;;;;23.02;2.22;;;;;;;18.29;67.64;99369.50;7311658;19;129096;-68
2022/12/30 11:16:14;;;;;;;30.00;2.75;;;;;;;18.39;67.65;99386.91;7317202;19;129715;-66
2022/12/30 11:18:44;;;;;;;15.43;1.48;;;;;;;18.40;67.29;99378.13;7318369;19;129199;-68
2022/12/30 11:21:10;;;;;;;13.45;1.38;;;;;;;18.43;67.55;99383.09;7315693;19;129109;-67
2022/12/30 11:23:40;;;;;;;19.70;1.85;;;;;;;18.42;67.67;99381.44;7316563;19;129014;-66
2022/12/30 11:26:17;;;;;;;46.05;3.65;;;;;;;18.44;67.15;99386.53;7315582;19;129016;-66
2022/12/30 11:28:49;;;;;;;35.03;2.70;;;;;;;18.47;67.44;99384.50;7318615;19;129619;-65
2022/12/30 11:31:16;;;;;;;8.43;0.93;;;;;;;18.50;66.98;99389.44;7316543;19;129262;-68
2022/12/30 11:33:53;;;;;;;15.43;1.60;;;;;;;18.55;66.89;99392.50;7316180;19;129844;-67
2022/12/30 11:36:31;;;;;;;8.93;0.85;;;;;;;18.53;66.61;99384.00;7315823;19;129364;-68
2022/12/30 11:39:06;;;;;;;18.27;1.73;;;;;;;18.54;67.09;99375.25;7315950;19;130511;-66
2022/12/30 11:41:33;;;;;;;26.33;2.50;;;;;;;18.53;67.13;99373.56;7315217;19;129544;-67
2022/12/30 11:43:58;;;;;;;17.95;1.85;;;;;;;18.53;66.77;99372.78;7316191;19;129199;-65
2022/12/30 11:46:30;;;;;;;18.20;1.77;;;;;;;18.50;66.88;99368.63;7316557;19;130204;-68
2022/12/30 11:49:00;;;;;;;16.65;1.63;;;;;;;18.52;66.74;99377.16;7315873;19;129136;-67
2022/12/30 11:51:34;;;;;;;21.95;1.98;;;;;;;18.55;67.19;99366.47;7315229;19;129689;-68
2022/12/30 11:54:06;;;;;;;39.35;3.35;;;;;;;18.55;66.69;99366.47;7315820;19;128800;-66
2022/12/30 11:56:32;;;;;;;24.42;2.20;;;;;;;18.53;66.93;99351.94;7313676;19;129610;-68
2022/12/30 11:59:42;;;;;;;17.83;1.77;;;;;;;18.45;66.63;99329.13;7316053;19;129699;-67
2022/12/30 12:02:38;;;;;;;26.00;2.28;;;;;;;18.59;66.72;99338.41;7312739;19;129594;-67
2022/12/30 12:05:22;;;;;;;66.75;6.88;;;;;;;18.56;66.94;99331.66;7312831;19;129407;-67
2022/12/30 12:07:50;;;;;;;36.08;3.10;;;;;;;18.52;66.46;99330.28;7315807;19;129471;-65
2022/12/30 12:10:24;;;;;;;9.93;1.02;;;;;;;18.53;66.52;99321.50;7316522;19;129637;-65
2022/12/30 12:13:01;;;;;;;20.95;2.22;;;;;;;18.54;66.59;99315.38;7315844;19;129171;-66
2022/12/30 12:15:40;;;;;;;14.30;1.38;;;;;;;18.54;66.54;99312.78;7314641;19;129305;-65
2022/12/30 12:18:27;;;;;;;18.33;1.88;;;;;;;18.55;66.41;99309.19;7313944;19;129528;-68
2022/12/30 12:21:07;;;;;;;20.08;1.83;;;;;;;18.54;66.52;99301.53;7313756;19;129199;-67
2022/12/30 12:23:45;;;;;;;19.45;1.77;;;;;;;18.51;66.61;99296.56;7315102;19;129884;-68
2022/12/30 12:26:19;;;;;;;38.03;3.33;;;;;;;18.54;66.50;99296.31;7314225;19;129124;-73
2022/12/30 12:28:47;;;;;;;34.78;3.10;;;;;;;18.41;66.21;99269.66;7314572;19;128886;-66